sensor_id;sensor_type;location;lat;lon;timestamp;temperature;humidity
19435;DHT22;9853;50.848;4.108;2023-06-14T00:05:32;21.30;99.90
19435;DHT22;9853;50.848;4.108;2023-06-14T00:15:19;21.20;99.90
19435;DHT22;9853;50.848;4.108;2023-06-14T06:54:45;22.20;99.90
19435;DHT22;9853;50.848;4.108;2023-06-14T06:56:51;22.20;99.90
19435;DHT22;9853;50.848;4.108;2023-06-14T07:00:06;22.30;99.90
19435;DHT22;9853;50.848;4.108;2023-06-14T07:03:00;22.60;99.90
19435;DHT22;9853;50.848;4.108;2023-06-14T07:08:57;22.50;99.90
19435;DHT22;9853;50.848;4.108;2023-06-14T07:11:14;22.70;99.90
19435;DHT22;9853;50.848;4.108;2023-06-14T07:14:30;22.90;99.90
19435;DHT22;9853;50.848;4.108;2023-06-14T07:23:06;26.60;99.90
19435;DHT22;9853;50.848;4.108;2023-06-14T07:25:43;27.50;99.90
19435;DHT22;9853;50.848;4.108;2023-06-14T07:31:25;28.10;98.70
19435;DHT22;9853;50.848;4.108;2023-06-14T07:34:05;28.30;98.40
19435;DHT22;9853;50.848;4.108;2023-06-14T07:36:51;28.40;97.70
19435;DHT22;9853;50.848;4.108;2023-06-14T07:42:16;29.50;97.00
19435;DHT22;9853;50.848;4.108;2023-06-14T07:45:05;29.80;96.50
19435;DHT22;9853;50.848;4.108;2023-06-14T07:47:28;29.70;96.80
19435;DHT22;9853;50.848;4.108;2023-06-14T07:49:55;29.60;96.20
19435;DHT22;9853;50.848;4.108;2023-06-14T07:52:03;30.40;96.30
19435;DHT22;9853;50.848;4.108;2023-06-14T07:57:55;30.50;96.00
19435;DHT22;9853;50.848;4.108;2023-06-14T08:00:12;30.30;95.90
19435;DHT22;9853;50.848;4.108;2023-06-14T08:02:31;30.10;95.70
19435;DHT22;9853;50.848;4.108;2023-06-14T08:04:39;30.20;96.80
19435;DHT22;9853;50.848;4.108;2023-06-14T08:07:07;30.60;96.40
19435;DHT22;9853;50.848;4.108;2023-06-14T08:09:28;31.10;95.20
19435;DHT22;9853;50.848;4.108;2023-06-14T08:11:48;31.40;95.50
19435;DHT22;9853;50.848;4.108;2023-06-14T08:13:56;32.10;95.00
19435;DHT22;9853;50.848;4.108;2023-06-14T08:16:47;32.40;94.20
19435;DHT22;9853;50.848;4.108;2023-06-14T08:18:57;32.80;95.40
19435;DHT22;9853;50.848;4.108;2023-06-14T08:21:53;33.20;94.50
19435;DHT22;9853;50.848;4.108;2023-06-14T08:24:28;33.00;94.80
19435;DHT22;9853;50.848;4.108;2023-06-14T08:26:31;32.50;95.40
19435;DHT22;9853;50.848;4.108;2023-06-14T08:34:21;32.00;94.80
19435;DHT22;9853;50.848;4.108;2023-06-14T08:36:42;31.60;95.00
19435;DHT22;9853;50.848;4.108;2023-06-14T08:38:50;31.60;95.00
19435;DHT22;9853;50.848;4.108;2023-06-14T08:41:32;31.70;95.80
19435;DHT22;9853;50.848;4.108;2023-06-14T08:43:57;31.20;95.20
19435;DHT22;9853;50.848;4.108;2023-06-14T08:46:12;30.70;95.00
19435;DHT22;9853;50.848;4.108;2023-06-14T08:48:51;30.40;95.10
19435;DHT22;9853;50.848;4.108;2023-06-14T08:53:56;30.60;95.40
19435;DHT22;9853;50.848;4.108;2023-06-14T08:56:17;30.90;94.10
19435;DHT22;9853;50.848;4.108;2023-06-14T08:58:24;30.80;93.70
19435;DHT22;9853;50.848;4.108;2023-06-14T09:00:26;30.70;93.40
19435;DHT22;9853;50.848;4.108;2023-06-14T09:02:31;30.70;93.10
19435;DHT22;9853;50.848;4.108;2023-06-14T09:04:39;31.00;92.90
19435;DHT22;9853;50.848;4.108;2023-06-14T09:06:47;31.20;92.50
19435;DHT22;9853;50.848;4.108;2023-06-14T09:09:05;31.80;92.50
19435;DHT22;9853;50.848;4.108;2023-06-14T09:11:12;32.20;93.20
19435;DHT22;9853;50.848;4.108;2023-06-14T09:13:19;31.80;94.90
19435;DHT22;9853;50.848;4.108;2023-06-14T09:15:51;31.60;94.00
19435;DHT22;9853;50.848;4.108;2023-06-14T09:18:35;31.60;93.90
19435;DHT22;9853;50.848;4.108;2023-06-14T09:20:54;31.40;94.20
19435;DHT22;9853;50.848;4.108;2023-06-14T09:22:57;31.40;95.20
19435;DHT22;9853;50.848;4.108;2023-06-14T09:25:06;31.10;93.60
19435;DHT22;9853;50.848;4.108;2023-06-14T09:27:43;31.00;94.30
19435;DHT22;9853;50.848;4.108;2023-06-14T09:29:46;31.10;94.70
19435;DHT22;9853;50.848;4.108;2023-06-14T09:32:54;31.40;95.50
19435;DHT22;9853;50.848;4.108;2023-06-14T09:35:40;30.60;94.90
19435;DHT22;9853;50.848;4.108;2023-06-14T09:40:12;30.80;94.20
19435;DHT22;9853;50.848;4.108;2023-06-14T09:42:29;30.70;95.10
19435;DHT22;9853;50.848;4.108;2023-06-14T09:44:53;30.60;95.40
19435;DHT22;9853;50.848;4.108;2023-06-14T09:47:20;30.20;94.60
19435;DHT22;9853;50.848;4.108;2023-06-14T09:49:27;29.70;95.20
19435;DHT22;9853;50.848;4.108;2023-06-14T09:51:55;29.50;94.90
19435;DHT22;9853;50.848;4.108;2023-06-14T09:56:55;30.10;94.40
19435;DHT22;9853;50.848;4.108;2023-06-14T09:59:31;30.30;94.40
19435;DHT22;9853;50.848;4.108;2023-06-14T10:01:47;30.20;94.50
19435;DHT22;9853;50.848;4.108;2023-06-14T10:04:06;30.20;95.40
19435;DHT22;9853;50.848;4.108;2023-06-14T10:06:29;30.60;95.30
19435;DHT22;9853;50.848;4.108;2023-06-14T10:08:46;30.40;95.30
19435;DHT22;9853;50.848;4.108;2023-06-14T10:13:06;30.10;97.10
19435;DHT22;9853;50.848;4.108;2023-06-14T10:16:00;29.90;96.50
19435;DHT22;9853;50.848;4.108;2023-06-14T10:21:00;29.20;94.50
19435;DHT22;9853;50.848;4.108;2023-06-14T10:23:10;28.80;94.30
19435;DHT22;9853;50.848;4.108;2023-06-14T10:28:21;28.40;96.10
19435;DHT22;9853;50.848;4.108;2023-06-14T10:30:26;27.90;96.30
19435;DHT22;9853;50.848;4.108;2023-06-14T10:35:30;27.60;97.10
19435;DHT22;9853;50.848;4.108;2023-06-14T10:37:38;27.50;96.40
19435;DHT22;9853;50.848;4.108;2023-06-14T10:39:45;27.40;96.90
19435;DHT22;9853;50.848;4.108;2023-06-14T10:42:12;27.30;96.10
19435;DHT22;9853;50.848;4.108;2023-06-14T10:45:02;27.10;95.70
19435;DHT22;9853;50.848;4.108;2023-06-14T10:47:35;27.10;97.00
19435;DHT22;9853;50.848;4.108;2023-06-14T10:50:02;27.00;97.20
19435;DHT22;9853;50.848;4.108;2023-06-14T10:52:39;27.10;96.40
19435;DHT22;9853;50.848;4.108;2023-06-14T10:57:30;27.60;96.00
19435;DHT22;9853;50.848;4.108;2023-06-14T10:59:54;27.80;96.20
19435;DHT22;9853;50.848;4.108;2023-06-14T11:05:57;27.50;95.40
19435;DHT22;9853;50.848;4.108;2023-06-14T11:08:27;27.50;95.80
19435;DHT22;9853;50.848;4.108;2023-06-14T11:13:49;28.00;95.20
19435;DHT22;9853;50.848;4.108;2023-06-14T11:16:02;28.40;96.10
19435;DHT22;9853;50.848;4.108;2023-06-14T11:18:56;28.40;94.60
19435;DHT22;9853;50.848;4.108;2023-06-14T11:21:08;28.10;95.70
19435;DHT22;9853;50.848;4.108;2023-06-14T11:23:16;27.90;94.20
19435;DHT22;9853;50.848;4.108;2023-06-14T11:25:59;27.80;95.40
19435;DHT22;9853;50.848;4.108;2023-06-14T11:29:01;27.70;94.60
19435;DHT22;9853;50.848;4.108;2023-06-14T11:31:11;27.80;94.40
19435;DHT22;9853;50.848;4.108;2023-06-14T11:33:17;27.90;93.40
19435;DHT22;9853;50.848;4.108;2023-06-14T11:36:07;28.00;94.10
19435;DHT22;9853;50.848;4.108;2023-06-14T11:38:14;28.10;95.00
19435;DHT22;9853;50.848;4.108;2023-06-14T11:43:29;27.90;92.90
19435;DHT22;9853;50.848;4.108;2023-06-14T11:46:16;28.00;94.90
19435;DHT22;9853;50.848;4.108;2023-06-14T11:48:17;28.20;94.30
19435;DHT22;9853;50.848;4.108;2023-06-14T11:50:41;28.30;95.00
19435;DHT22;9853;50.848;4.108;2023-06-14T11:52:57;28.20;94.90
19435;DHT22;9853;50.848;4.108;2023-06-14T11:55:16;27.90;94.00
19435;DHT22;9853;50.848;4.108;2023-06-14T11:57:40;27.90;96.00
19435;DHT22;9853;50.848;4.108;2023-06-14T11:59:47;28.00;93.80
19435;DHT22;9853;50.848;4.108;2023-06-14T12:01:54;28.00;93.80
19435;DHT22;9853;50.848;4.108;2023-06-14T12:04:26;28.00;92.90
19435;DHT22;9853;50.848;4.108;2023-06-14T12:06:39;27.90;95.30
19435;DHT22;9853;50.848;4.108;2023-06-14T12:08:45;28.00;94.60
19435;DHT22;9853;50.848;4.108;2023-06-14T12:10:59;28.00;92.90
19435;DHT22;9853;50.848;4.108;2023-06-14T12:13:44;28.30;93.60
19435;DHT22;9853;50.848;4.108;2023-06-14T12:15:54;28.50;93.90
19435;DHT22;9853;50.848;4.108;2023-06-14T12:18:55;28.80;94.10
19435;DHT22;9853;50.848;4.108;2023-06-14T12:24:05;28.50;92.80
19435;DHT22;9853;50.848;4.108;2023-06-14T12:26:23;28.70;92.80
19435;DHT22;9853;50.848;4.108;2023-06-14T12:28:57;28.90;93.60
19435;DHT22;9853;50.848;4.108;2023-06-14T12:31:02;28.60;93.00
19435;DHT22;9853;50.848;4.108;2023-06-14T12:36:33;28.50;93.90
19435;DHT22;9853;50.848;4.108;2023-06-14T12:38:42;28.90;93.20
19435;DHT22;9853;50.848;4.108;2023-06-14T12:41:11;28.80;93.00
19435;DHT22;9853;50.848;4.108;2023-06-14T12:43:51;28.80;92.70
19435;DHT22;9853;50.848;4.108;2023-06-14T12:48:41;28.70;93.50
19435;DHT22;9853;50.848;4.108;2023-06-14T12:50:57;28.80;92.70
19435;DHT22;9853;50.848;4.108;2023-06-14T12:53:16;28.90;92.90
19435;DHT22;9853;50.848;4.108;2023-06-14T12:55:26;28.70;92.80
19435;DHT22;9853;50.848;4.108;2023-06-14T12:58:04;28.50;94.30
19435;DHT22;9853;50.848;4.108;2023-06-14T13:00:35;28.60;93.70
19435;DHT22;9853;50.848;4.108;2023-06-14T13:02:54;28.50;93.10
19435;DHT22;9853;50.848;4.108;2023-06-14T13:07:47;28.80;93.10
19435;DHT22;9853;50.848;4.108;2023-06-14T13:10:12;28.80;93.30
19435;DHT22;9853;50.848;4.108;2023-06-14T13:12:39;28.40;93.90
19435;DHT22;9853;50.848;4.108;2023-06-14T13:14:54;28.00;94.20
19435;DHT22;9853;50.848;4.108;2023-06-14T13:17:26;27.90;94.00
19435;DHT22;9853;50.848;4.108;2023-06-14T13:20:08;27.70;93.30
19435;DHT22;9853;50.848;4.108;2023-06-14T13:22:22;27.70;93.00
19435;DHT22;9853;50.848;4.108;2023-06-14T13:24:37;28.00;93.80
19435;DHT22;9853;50.848;4.108;2023-06-14T13:26:44;28.10;92.90
19435;DHT22;9853;50.848;4.108;2023-06-14T13:28:45;28.30;93.80
19435;DHT22;9853;50.848;4.108;2023-06-14T13:30:46;28.50;93.00
19435;DHT22;9853;50.848;4.108;2023-06-14T13:33:14;28.50;93.80
19435;DHT22;9853;50.848;4.108;2023-06-14T13:35:35;28.70;93.60
19435;DHT22;9853;50.848;4.108;2023-06-14T13:37:59;28.60;93.70
19435;DHT22;9853;50.848;4.108;2023-06-14T13:40:00;28.60;93.60
19435;DHT22;9853;50.848;4.108;2023-06-14T13:44:57;28.30;93.40
19435;DHT22;9853;50.848;4.108;2023-06-14T13:47:00;28.30;93.00
19435;DHT22;9853;50.848;4.108;2023-06-14T13:49:05;28.40;92.80
19435;DHT22;9853;50.848;4.108;2023-06-14T13:51:09;28.50;93.90
19435;DHT22;9853;50.848;4.108;2023-06-14T13:53:18;28.20;93.10
19435;DHT22;9853;50.848;4.108;2023-06-14T13:55:25;28.30;93.00
19435;DHT22;9853;50.848;4.108;2023-06-14T13:57:31;28.60;93.50
19435;DHT22;9853;50.848;4.108;2023-06-14T13:59:37;28.70;93.60
19435;DHT22;9853;50.848;4.108;2023-06-14T14:02:01;28.50;93.60
19435;DHT22;9853;50.848;4.108;2023-06-14T14:04:08;28.30;94.20
19435;DHT22;9853;50.848;4.108;2023-06-14T14:06:11;28.20;94.00
19435;DHT22;9853;50.848;4.108;2023-06-14T14:08:18;28.00;93.90
19435;DHT22;9853;50.848;4.108;2023-06-14T14:10:19;27.80;93.10
19435;DHT22;9853;50.848;4.108;2023-06-14T14:12:23;27.70;94.30
19435;DHT22;9853;50.848;4.108;2023-06-14T14:14:29;27.70;93.80
19435;DHT22;9853;50.848;4.108;2023-06-14T14:16:33;27.80;93.80
19435;DHT22;9853;50.848;4.108;2023-06-14T14:18:35;28.00;92.40
19435;DHT22;9853;50.848;4.108;2023-06-14T14:20:37;28.10;92.60
19435;DHT22;9853;50.848;4.108;2023-06-14T14:22:53;28.20;92.90
19435;DHT22;9853;50.848;4.108;2023-06-14T14:24:56;27.90;93.00
19435;DHT22;9853;50.848;4.108;2023-06-14T14:27:03;27.90;93.90
19435;DHT22;9853;50.848;4.108;2023-06-14T14:29:27;27.90;95.50
19435;DHT22;9853;50.848;4.108;2023-06-14T14:31:30;27.70;93.10
19435;DHT22;9853;50.848;4.108;2023-06-14T14:33:30;27.80;94.50
19435;DHT22;9853;50.848;4.108;2023-06-14T14:35:31;28.00;93.00
19435;DHT22;9853;50.848;4.108;2023-06-14T14:37:32;28.10;94.60
19435;DHT22;9853;50.848;4.108;2023-06-14T14:39:36;27.90;94.40
19435;DHT22;9853;50.848;4.108;2023-06-14T14:41:40;27.70;94.00
19435;DHT22;9853;50.848;4.108;2023-06-14T14:43:41;27.50;93.60
19435;DHT22;9853;50.848;4.108;2023-06-14T14:45:42;27.60;94.20
19435;DHT22;9853;50.848;4.108;2023-06-14T14:47:47;27.60;93.30
19435;DHT22;9853;50.848;4.108;2023-06-14T14:49:56;27.80;94.20
19435;DHT22;9853;50.848;4.108;2023-06-14T14:51:57;27.70;93.00
19435;DHT22;9853;50.848;4.108;2023-06-14T14:53:58;27.70;93.80
19435;DHT22;9853;50.848;4.108;2023-06-14T14:56:21;27.80;93.20
19435;DHT22;9853;50.848;4.108;2023-06-14T14:58:27;28.00;91.90
19435;DHT22;9853;50.848;4.108;2023-06-14T15:00:30;27.80;92.50
19435;DHT22;9853;50.848;4.108;2023-06-14T15:02:32;27.80;92.70
19435;DHT22;9853;50.848;4.108;2023-06-14T15:04:35;27.80;92.50
19435;DHT22;9853;50.848;4.108;2023-06-14T15:06:44;27.80;93.30
19435;DHT22;9853;50.848;4.108;2023-06-14T15:08:45;27.70;92.60
19435;DHT22;9853;50.848;4.108;2023-06-14T15:10:48;27.70;92.20
19435;DHT22;9853;50.848;4.108;2023-06-14T15:12:49;27.90;92.00
19435;DHT22;9853;50.848;4.108;2023-06-14T15:14:51;27.90;92.10
19435;DHT22;9853;50.848;4.108;2023-06-14T15:16:55;27.90;91.70
19435;DHT22;9853;50.848;4.108;2023-06-14T15:19:01;27.70;92.60
19435;DHT22;9853;50.848;4.108;2023-06-14T15:21:12;27.60;90.90
19435;DHT22;9853;50.848;4.108;2023-06-14T15:23:16;27.70;92.10
19435;DHT22;9853;50.848;4.108;2023-06-14T15:25:35;27.70;91.40
19435;DHT22;9853;50.848;4.108;2023-06-14T15:27:36;27.70;92.20
19435;DHT22;9853;50.848;4.108;2023-06-14T15:29:37;27.50;91.90
19435;DHT22;9853;50.848;4.108;2023-06-14T15:31:42;27.40;91.70
19435;DHT22;9853;50.848;4.108;2023-06-14T15:33:43;27.30;91.30
19435;DHT22;9853;50.848;4.108;2023-06-14T15:35:49;27.30;92.00
19435;DHT22;9853;50.848;4.108;2023-06-14T15:37:55;27.30;92.20
19435;DHT22;9853;50.848;4.108;2023-06-14T15:39:56;27.50;91.20
19435;DHT22;9853;50.848;4.108;2023-06-14T15:42:06;27.60;91.20
19435;DHT22;9853;50.848;4.108;2023-06-14T15:44:12;27.90;92.70
19435;DHT22;9853;50.848;4.108;2023-06-14T15:46:16;28.00;91.90
19435;DHT22;9853;50.848;4.108;2023-06-14T15:48:23;27.90;91.50
19435;DHT22;9853;50.848;4.108;2023-06-14T15:50:25;28.00;90.80
19435;DHT22;9853;50.848;4.108;2023-06-14T15:52:44;28.10;90.90
19435;DHT22;9853;50.848;4.108;2023-06-14T15:54:47;28.10;92.10
19435;DHT22;9853;50.848;4.108;2023-06-14T15:56:51;28.10;91.40
19435;DHT22;9853;50.848;4.108;2023-06-14T15:59:00;28.20;91.70
19435;DHT22;9853;50.848;4.108;2023-06-14T16:01:01;28.10;91.70
19435;DHT22;9853;50.848;4.108;2023-06-14T16:05:24;27.50;91.50
19435;DHT22;9853;50.848;4.108;2023-06-14T16:07:36;27.20;91.80
19435;DHT22;9853;50.848;4.108;2023-06-14T16:09:40;27.10;92.10
19435;DHT22;9853;50.848;4.108;2023-06-14T16:11:41;27.10;91.70
19435;DHT22;9853;50.848;4.108;2023-06-14T16:13:42;27.30;92.60
19435;DHT22;9853;50.848;4.108;2023-06-14T16:15:43;27.10;92.10
19435;DHT22;9853;50.848;4.108;2023-06-14T16:17:44;27.00;92.10
19435;DHT22;9853;50.848;4.108;2023-06-14T16:19:45;27.10;92.80
19435;DHT22;9853;50.848;4.108;2023-06-14T16:21:52;27.00;92.00
19435;DHT22;9853;50.848;4.108;2023-06-14T16:23:52;27.20;92.40
19435;DHT22;9853;50.848;4.108;2023-06-14T16:25:53;27.30;92.40
19435;DHT22;9853;50.848;4.108;2023-06-14T16:28:10;27.10;92.00
19435;DHT22;9853;50.848;4.108;2023-06-14T16:30:20;26.90;92.80
19435;DHT22;9853;50.848;4.108;2023-06-14T16:32:26;26.90;92.20
19435;DHT22;9853;50.848;4.108;2023-06-14T16:34:31;26.80;92.30
19435;DHT22;9853;50.848;4.108;2023-06-14T16:36:33;26.80;92.40
19435;DHT22;9853;50.848;4.108;2023-06-14T16:38:38;26.60;92.70
19435;DHT22;9853;50.848;4.108;2023-06-14T16:40:42;26.60;92.70
19435;DHT22;9853;50.848;4.108;2023-06-14T16:42:42;26.80;91.30
19435;DHT22;9853;50.848;4.108;2023-06-14T16:44:51;26.70;91.90
19435;DHT22;9853;50.848;4.108;2023-06-14T16:46:52;26.70;93.20
19435;DHT22;9853;50.848;4.108;2023-06-14T16:48:55;26.80;92.80
19435;DHT22;9853;50.848;4.108;2023-06-14T16:50:56;26.90;92.10
19435;DHT22;9853;50.848;4.108;2023-06-14T16:53:08;26.90;91.70
19435;DHT22;9853;50.848;4.108;2023-06-14T16:55:13;26.90;92.30
19435;DHT22;9853;50.848;4.108;2023-06-14T16:57:16;26.70;92.50
19435;DHT22;9853;50.848;4.108;2023-06-14T16:59:17;26.50;92.30
19435;DHT22;9853;50.848;4.108;2023-06-14T17:01:22;26.40;91.70
19435;DHT22;9853;50.848;4.108;2023-06-14T17:03:22;26.40;91.20
19435;DHT22;9853;50.848;4.108;2023-06-14T17:05:26;26.40;91.20
19435;DHT22;9853;50.848;4.108;2023-06-14T17:07:29;26.50;92.00
19435;DHT22;9853;50.848;4.108;2023-06-14T17:09:30;26.60;92.40
19435;DHT22;9853;50.848;4.108;2023-06-14T17:11:34;26.60;91.60
19435;DHT22;9853;50.848;4.108;2023-06-14T17:13:38;26.60;92.50
19435;DHT22;9853;50.848;4.108;2023-06-14T17:15:41;26.30;92.40
19435;DHT22;9853;50.848;4.108;2023-06-14T17:17:43;26.20;93.30
19435;DHT22;9853;50.848;4.108;2023-06-14T17:19:44;26.00;93.20
19435;DHT22;9853;50.848;4.108;2023-06-14T17:21:50;26.10;93.80
19435;DHT22;9853;50.848;4.108;2023-06-14T17:23:52;26.20;93.80
19435;DHT22;9853;50.848;4.108;2023-06-14T17:26:00;26.20;93.40
19435;DHT22;9853;50.848;4.108;2023-06-14T17:28:04;26.10;93.20
19435;DHT22;9853;50.848;4.108;2023-06-14T17:30:14;26.00;93.20
19435;DHT22;9853;50.848;4.108;2023-06-14T17:32:16;26.10;94.30
19435;DHT22;9853;50.848;4.108;2023-06-14T17:34:16;26.10;93.20
19435;DHT22;9853;50.848;4.108;2023-06-14T17:36:20;26.00;94.00
19435;DHT22;9853;50.848;4.108;2023-06-14T17:38:21;25.90;93.30
19435;DHT22;9853;50.848;4.108;2023-06-14T17:40:22;25.80;93.50
19435;DHT22;9853;50.848;4.108;2023-06-14T17:42:37;25.80;93.90
19435;DHT22;9853;50.848;4.108;2023-06-14T17:44:49;25.90;94.60
19435;DHT22;9853;50.848;4.108;2023-06-14T17:47:01;26.00;93.40
19435;DHT22;9853;50.848;4.108;2023-06-14T17:49:07;26.00;94.40
19435;DHT22;9853;50.848;4.108;2023-06-14T17:51:11;25.90;94.10
19435;DHT22;9853;50.848;4.108;2023-06-14T17:53:29;25.90;93.80
19435;DHT22;9853;50.848;4.108;2023-06-14T17:55:43;25.80;94.30
19435;DHT22;9853;50.848;4.108;2023-06-14T17:57:46;25.70;94.40
19435;DHT22;9853;50.848;4.108;2023-06-14T17:59:56;25.60;94.30
19435;DHT22;9853;50.848;4.108;2023-06-14T18:02:20;25.50;94.00
19435;DHT22;9853;50.848;4.108;2023-06-14T18:04:24;25.60;94.00
19435;DHT22;9853;50.848;4.108;2023-06-14T18:06:38;25.40;93.60
19435;DHT22;9853;50.848;4.108;2023-06-14T18:08:44;25.30;94.30
19435;DHT22;9853;50.848;4.108;2023-06-14T18:10:56;25.30;94.30
19435;DHT22;9853;50.848;4.108;2023-06-14T18:13:20;25.10;93.70
19435;DHT22;9853;50.848;4.108;2023-06-14T18:15:37;25.10;93.70
19435;DHT22;9853;50.848;4.108;2023-06-14T18:17:37;25.10;93.50
19435;DHT22;9853;50.848;4.108;2023-06-14T18:19:58;25.20;93.70
19435;DHT22;9853;50.848;4.108;2023-06-14T18:22:02;25.30;93.20
19435;DHT22;9853;50.848;4.108;2023-06-14T18:24:50;25.30;93.50
19435;DHT22;9853;50.848;4.108;2023-06-14T18:27:04;25.50;94.00
19435;DHT22;9853;50.848;4.108;2023-06-14T18:29:07;25.30;93.60
19435;DHT22;9853;50.848;4.108;2023-06-14T18:31:08;25.20;93.70
19435;DHT22;9853;50.848;4.108;2023-06-14T18:33:09;25.10;93.80
19435;DHT22;9853;50.848;4.108;2023-06-14T18:35:35;25.00;93.60
19435;DHT22;9853;50.848;4.108;2023-06-14T18:38:17;24.90;94.10
19435;DHT22;9853;50.848;4.108;2023-06-14T18:40:20;24.90;94.20
19435;DHT22;9853;50.848;4.108;2023-06-14T18:42:20;24.80;94.60
19435;DHT22;9853;50.848;4.108;2023-06-14T18:44:22;24.80;94.10
19435;DHT22;9853;50.848;4.108;2023-06-14T18:46:23;24.60;93.80
19435;DHT22;9853;50.848;4.108;2023-06-14T18:48:24;24.50;93.70
19435;DHT22;9853;50.848;4.108;2023-06-14T18:50:25;24.40;94.00
19435;DHT22;9853;50.848;4.108;2023-06-14T18:52:26;24.40;94.40
19435;DHT22;9853;50.848;4.108;2023-06-14T18:54:26;24.50;93.70
19435;DHT22;9853;50.848;4.108;2023-06-14T18:56:27;24.50;94.40
19435;DHT22;9853;50.848;4.108;2023-06-14T18:58:32;24.50;94.20
19435;DHT22;9853;50.848;4.108;2023-06-14T19:00:33;24.50;94.20
19435;DHT22;9853;50.848;4.108;2023-06-14T19:02:34;24.50;94.10
19435;DHT22;9853;50.848;4.108;2023-06-14T19:04:35;24.40;93.80
19435;DHT22;9853;50.848;4.108;2023-06-14T19:06:38;24.40;94.00
19435;DHT22;9853;50.848;4.108;2023-06-14T19:08:41;24.50;93.70
19435;DHT22;9853;50.848;4.108;2023-06-14T19:10:42;24.60;93.50
19435;DHT22;9853;50.848;4.108;2023-06-14T19:12:43;24.60;93.70
19435;DHT22;9853;50.848;4.108;2023-06-14T19:14:47;24.50;93.80
19435;DHT22;9853;50.848;4.108;2023-06-14T19:16:47;24.30;93.80
19435;DHT22;9853;50.848;4.108;2023-06-14T19:18:50;24.20;94.10
19435;DHT22;9853;50.848;4.108;2023-06-14T19:20:51;24.10;94.30
19435;DHT22;9853;50.848;4.108;2023-06-14T19:22:52;24.10;94.10
19435;DHT22;9853;50.848;4.108;2023-06-14T19:24:53;24.10;94.40
19435;DHT22;9853;50.848;4.108;2023-06-14T19:26:54;24.10;94.30
19435;DHT22;9853;50.848;4.108;2023-06-14T19:28:55;24.10;94.10
19435;DHT22;9853;50.848;4.108;2023-06-14T19:30:57;24.20;93.90
19435;DHT22;9853;50.848;4.108;2023-06-14T19:32:58;24.20;94.00
19435;DHT22;9853;50.848;4.108;2023-06-14T19:34:59;24.20;94.00
19435;DHT22;9853;50.848;4.108;2023-06-14T19:37:00;24.20;94.00
19435;DHT22;9853;50.848;4.108;2023-06-14T19:39:02;24.20;94.00
19435;DHT22;9853;50.848;4.108;2023-06-14T19:41:03;24.20;94.10
19435;DHT22;9853;50.848;4.108;2023-06-14T19:43:04;24.10;94.00
19435;DHT22;9853;50.848;4.108;2023-06-14T19:45:06;24.10;93.90
19435;DHT22;9853;50.848;4.108;2023-06-14T19:47:08;24.10;94.20
19435;DHT22;9853;50.848;4.108;2023-06-14T19:49:12;24.10;94.30
19435;DHT22;9853;50.848;4.108;2023-06-14T19:51:13;24.00;94.40
19435;DHT22;9853;50.848;4.108;2023-06-14T19:53:13;23.90;94.30
19435;DHT22;9853;50.848;4.108;2023-06-14T19:55:14;23.90;94.30
19435;DHT22;9853;50.848;4.108;2023-06-14T19:57:16;23.90;94.50
19435;DHT22;9853;50.848;4.108;2023-06-14T19:59:19;23.90;94.40
19435;DHT22;9853;50.848;4.108;2023-06-14T20:01:20;24.00;94.40
19435;DHT22;9853;50.848;4.108;2023-06-14T20:03:23;23.90;94.40
19435;DHT22;9853;50.848;4.108;2023-06-14T20:05:24;23.90;94.50
19435;DHT22;9853;50.848;4.108;2023-06-14T20:07:25;23.90;94.60
19435;DHT22;9853;50.848;4.108;2023-06-14T20:09:26;23.90;94.60
19435;DHT22;9853;50.848;4.108;2023-06-14T20:11:27;23.90;94.50
19435;DHT22;9853;50.848;4.108;2023-06-14T20:13:28;23.90;94.60
19435;DHT22;9853;50.848;4.108;2023-06-14T20:15:29;23.90;94.60
19435;DHT22;9853;50.848;4.108;2023-06-14T20:17:29;23.80;94.70
19435;DHT22;9853;50.848;4.108;2023-06-14T20:19:30;23.70;94.90
19435;DHT22;9853;50.848;4.108;2023-06-14T20:21:31;23.60;95.10
19435;DHT22;9853;50.848;4.108;2023-06-14T20:23:34;23.50;95.10
19435;DHT22;9853;50.848;4.108;2023-06-14T20:25:36;23.50;95.20
19435;DHT22;9853;50.848;4.108;2023-06-14T20:27:37;23.50;95.20
19435;DHT22;9853;50.848;4.108;2023-06-14T20:29:38;23.50;95.30
19435;DHT22;9853;50.848;4.108;2023-06-14T20:31:39;23.50;95.30
19435;DHT22;9853;50.848;4.108;2023-06-14T20:33:39;23.40;95.30
19435;DHT22;9853;50.848;4.108;2023-06-14T20:35:40;23.40;95.40
19435;DHT22;9853;50.848;4.108;2023-06-14T20:37:49;23.40;95.40
19435;DHT22;9853;50.848;4.108;2023-06-14T20:39:54;23.40;95.50
19435;DHT22;9853;50.848;4.108;2023-06-14T20:42:02;23.40;95.50
19435;DHT22;9853;50.848;4.108;2023-06-14T20:44:04;23.40;95.40
19435;DHT22;9853;50.848;4.108;2023-06-14T20:46:06;23.40;95.50
19435;DHT22;9853;50.848;4.108;2023-06-14T20:48:07;23.40;95.70
19435;DHT22;9853;50.848;4.108;2023-06-14T20:50:10;23.30;95.80
19435;DHT22;9853;50.848;4.108;2023-06-14T20:52:13;23.20;95.90
19435;DHT22;9853;50.848;4.108;2023-06-14T20:54:13;23.10;96.10
19435;DHT22;9853;50.848;4.108;2023-06-14T20:56:14;22.90;96.30
19435;DHT22;9853;50.848;4.108;2023-06-14T20:58:15;22.90;96.80
19435;DHT22;9853;50.848;4.108;2023-06-14T21:00:17;22.80;96.50
19435;DHT22;9853;50.848;4.108;2023-06-14T21:02:18;22.80;96.60
19435;DHT22;9853;50.848;4.108;2023-06-14T21:04:19;22.70;96.60
19435;DHT22;9853;50.848;4.108;2023-06-14T21:06:21;22.80;96.70
19435;DHT22;9853;50.848;4.108;2023-06-14T21:08:22;22.70;96.60
19435;DHT22;9853;50.848;4.108;2023-06-14T21:10:23;22.70;96.60
19435;DHT22;9853;50.848;4.108;2023-06-14T21:12:24;22.70;96.80
19435;DHT22;9853;50.848;4.108;2023-06-14T21:14:26;22.70;96.90
19435;DHT22;9853;50.848;4.108;2023-06-14T21:16:30;22.70;97.00
19435;DHT22;9853;50.848;4.108;2023-06-14T21:18:30;22.50;97.10
19435;DHT22;9853;50.848;4.108;2023-06-14T21:20:33;22.40;97.20
19435;DHT22;9853;50.848;4.108;2023-06-14T21:22:35;22.40;97.40
19435;DHT22;9853;50.848;4.108;2023-06-14T21:24:36;22.30;97.60
19435;DHT22;9853;50.848;4.108;2023-06-14T21:26:37;22.20;97.60
19435;DHT22;9853;50.848;4.108;2023-06-14T21:28:38;22.20;97.70
19435;DHT22;9853;50.848;4.108;2023-06-14T21:30:39;22.10;97.80
19435;DHT22;9853;50.848;4.108;2023-06-14T21:32:40;22.20;97.80
19435;DHT22;9853;50.848;4.108;2023-06-14T21:34:43;22.20;97.70
19435;DHT22;9853;50.848;4.108;2023-06-14T21:36:45;22.20;97.70
19435;DHT22;9853;50.848;4.108;2023-06-14T21:38:46;22.20;97.80
19435;DHT22;9853;50.848;4.108;2023-06-14T21:40:47;22.30;97.70
19435;DHT22;9853;50.848;4.108;2023-06-14T21:42:49;22.40;97.60
19435;DHT22;9853;50.848;4.108;2023-06-14T21:44:49;22.40;97.50
19435;DHT22;9853;50.848;4.108;2023-06-14T21:46:51;22.40;97.50
19435;DHT22;9853;50.848;4.108;2023-06-14T21:48:52;22.50;97.60
19435;DHT22;9853;50.848;4.108;2023-06-14T21:50:53;22.60;97.60
19435;DHT22;9853;50.848;4.108;2023-06-14T21:52:54;22.60;97.50
19435;DHT22;9853;50.848;4.108;2023-06-14T21:54:55;22.60;97.50
19435;DHT22;9853;50.848;4.108;2023-06-14T21:57:00;22.60;97.50
19435;DHT22;9853;50.848;4.108;2023-06-14T21:59:01;22.60;97.50
19435;DHT22;9853;50.848;4.108;2023-06-14T22:01:01;22.50;97.50
19435;DHT22;9853;50.848;4.108;2023-06-14T22:03:03;22.50;97.60